Time;durP1;ratioP1;P1;durP2;ratioP2;P2;SDS_P1;SDS_P2;PMS_P1;PMS_P2;Temp;Humidity;BMP_temperature;BMP_pressure;BME280_temperature;BME280_humidity;BME280_pressure;Samples;Min_cycle;Max_cycle;Signal;HPM_P1;HPM_P2
2022/10/03 00:02:20;;;;;;;16.15;3.55;;;10.70;99.90;;;;;;6004964;23;20445;-88
2022/10/03 00:04:52;;;;;;;16.67;3.78;;;10.70;99.90;;;;;;6003443;23;20015;-89
2022/10/03 00:07:42;;;;;;;15.07;3.38;;;10.70;99.90;;;;;;6002788;23;20071;-89
2022/10/03 00:10:44;;;;;;;17.15;4.00;;;10.70;99.90;;;;;;6004048;23;20019;-88
2022/10/03 00:13:24;;;;;;;14.88;3.50;;;10.70;99.90;;;;;;6004635;23;20034;-89
2022/10/03 00:16:19;;;;;;;16.65;3.75;;;10.70;99.90;;;;;;5976971;23;20020;-89
2022/10/03 00:19:12;;;;;;;19.00;4.22;;;10.70;99.90;;;;;;6003303;23;20043;-90
2022/10/03 00:21:49;;;;;;;16.80;3.63;;;10.70;99.90;;;;;;6000759;23;20319;-91
2022/10/03 00:24:28;;;;;;;12.85;3.80;;;10.60;99.90;;;;;;6003711;23;20375;-89
2022/10/03 00:27:13;;;;;;;16.60;4.30;;;10.60;99.90;;;;;;5978000;23;20020;-90
2022/10/03 00:29:50;;;;;;;15.13;3.60;;;10.60;99.90;;;;;;6001548;23;20016;-89
2022/10/03 00:32:27;;;;;;;15.93;3.80;;;10.60;99.90;;;;;;6003250;23;20015;-89
2022/10/03 00:35:30;;;;;;;15.88;3.67;;;10.60;99.90;;;;;;6002827;23;20024;-89
2022/10/03 00:38:20;;;;;;;15.50;3.58;;;10.60;99.90;;;;;;6002755;23;20541;-89
2022/10/03 00:41:03;;;;;;;16.42;3.72;;;10.60;99.90;;;;;;6005448;23;20012;-89
2022/10/03 00:43:56;;;;;;;16.15;3.90;;;10.60;99.90;;;;;;6005787;23;20016;-89
2022/10/03 00:46:44;;;;;;;15.73;4.40;;;10.50;99.90;;;;;;6006624;23;20080;-88
2022/10/03 00:49:29;;;;;;;18.27;3.90;;;10.60;99.90;;;;;;6009177;23;20090;-89
2022/10/03 00:52:26;;;;;;;15.80;4.18;;;10.50;99.90;;;;;;6006195;23;20074;-88
2022/10/03 00:55:11;;;;;;;14.18;3.47;;;10.50;99.90;;;;;;6004021;23;20031;-89
2022/10/03 00:57:49;;;;;;;15.52;3.80;;;10.50;99.90;;;;;;6007235;23;20081;-89
2022/10/03 01:00:15;;;;;;;14.35;3.90;;;10.40;99.90;;;;;;6008952;23;20015;-89
2022/10/03 01:03:05;;;;;;;16.65;4.20;;;10.40;99.90;;;;;;6008526;23;20130;-88
2022/10/03 01:05:30;;;;;;;19.55;3.90;;;10.40;99.90;;;;;;6009743;23;20024;-89
2022/10/03 01:08:25;;;;;;;13.07;3.42;;;10.40;99.90;;;;;;6012684;23;20044;-88
2022/10/03 01:10:59;;;;;;;18.50;4.50;;;10.40;99.90;;;;;;6011669;23;20030;-89
2022/10/03 01:14:03;;;;;;;13.68;3.90;;;10.40;99.90;;;;;;6003836;23;20019;-89
2022/10/03 01:16:50;;;;;;;12.95;3.90;;;10.40;99.90;;;;;;5971936;23;20019;-89
2022/10/03 01:19:44;;;;;;;17.23;4.25;;;10.30;99.90;;;;;;6004506;23;20007;-89
2022/10/03 01:22:46;;;;;;;15.30;3.70;;;10.30;99.90;;;;;;5950577;23;20374;-88
2022/10/03 01:25:31;;;;;;;16.88;4.13;;;10.30;99.90;;;;;;6005544;23;20106;-88
2022/10/03 01:30:56;;;;;;;15.70;4.03;;;10.30;99.90;;;;;;6027838;23;20020;-89
2022/10/03 01:33:30;;;;;;;13.40;3.47;;;10.20;99.90;;;;;;6005039;23;20402;-89
2022/10/03 01:36:02;;;;;;;16.23;3.63;;;10.20;99.90;;;;;;5980608;23;20072;-89
2022/10/03 01:38:41;;;;;;;;;;;10.20;99.90;;;;;;6004335;23;20063;-89
2022/10/03 01:41:32;;;;;;;12.38;3.53;;;10.10;99.90;;;;;;6027724;23;19914;-89
2022/10/03 01:44:39;;;;;;;15.85;3.97;;;10.10;99.90;;;;;;6003915;23;20020;-89
2022/10/03 01:47:25;;;;;;;14.27;3.70;;;10.20;99.90;;;;;;5979229;23;20123;-89
2022/10/03 01:50:04;;;;;;;16.15;3.88;;;10.10;99.90;;;;;;6004545;23;20034;-89
2022/10/03 01:52:51;;;;;;;18.20;3.92;;;10.10;99.90;;;;;;6004962;23;20019;-89
2022/10/03 01:55:23;;;;;;;14.77;3.70;;;10.10;99.90;;;;;;6009691;23;20022;-89
2022/10/03 01:58:11;;;;;;;15.70;3.60;;;10.20;99.90;;;;;;6007271;23;20346;-89
2022/10/03 02:00:52;;;;;;;16.80;4.22;;;10.10;99.90;;;;;;6007842;23;20018;-89
2022/10/03 02:03:27;;;;;;;15.27;3.75;;;10.10;99.90;;;;;;6007317;23;20016;-88
2022/10/03 02:06:09;;;;;;;16.30;3.72;;;10.10;99.90;;;;;;6003561;23;20020;-89
2022/10/03 02:09:02;;;;;;;13.73;3.95;;;10.10;99.90;;;;;;6003923;23;20016;-89
2022/10/03 02:11:38;;;;;;;18.50;3.53;;;10.00;99.90;;;;;;6003970;23;20067;-90
2022/10/03 02:14:22;;;;;;;13.32;3.15;;;10.00;99.90;;;;;;5983697;23;20026;-90
2022/10/03 02:16:58;;;;;;;16.60;3.63;;;10.00;99.90;;;;;;6007225;23;20031;-89
2022/10/03 02:19:33;;;;;;;15.65;3.15;;;10.00;99.90;;;;;;6007459;23;20015;-89
2022/10/03 02:21:59;;;;;;;13.90;3.70;;;10.00;99.90;;;;;;6003540;23;20382;-89
2022/10/03 02:24:54;;;;;;;17.73;3.78;;;10.00;99.90;;;;;;6004194;23;20023;-89
2022/10/03 02:27:40;;;;;;;14.10;3.45;;;10.10;99.90;;;;;;6003421;23;20019;-90
2022/10/03 02:30:34;;;;;;;14.82;3.70;;;10.10;99.90;;;;;;6002141;23;20016;-89
2022/10/03 02:32:59;;;;;;;6.97;2.33;;;10.10;99.90;;;;;;6003584;23;20016;-89
2022/10/03 02:35:55;;;;;;;15.13;3.45;;;10.10;99.90;;;;;;6002345;23;20083;-90
2022/10/03 02:38:48;;;;;;;13.20;2.95;;;10.10;99.90;;;;;;6004292;23;20031;-89
2022/10/03 02:41:48;;;;;;;13.57;3.50;;;10.10;99.90;;;;;;6004393;23;20087;-90
2022/10/03 02:44:57;;;;;;;14.13;3.30;;;10.10;99.90;;;;;;6004169;23;20489;-89
2022/10/03 02:47:54;;;;;;;14.02;3.50;;;10.10;99.90;;;;;;6005307;23;20020;-89
2022/10/03 02:50:26;;;;;;;13.27;3.45;;;10.20;99.90;;;;;;5997329;23;20094;-90
2022/10/03 02:53:07;;;;;;;12.38;3.38;;;10.20;99.90;;;;;;6005169;23;20481;-89
2022/10/03 02:55:38;;;;;;;12.88;3.30;;;10.20;99.90;;;;;;6003292;23;20025;-89
2022/10/03 02:58:04;;;;;;;13.13;3.60;;;10.20;99.90;;;;;;6005832;23;20099;-89
2022/10/03 03:01:18;;;;;;;12.68;3.10;;;10.20;99.90;;;;;;6006021;23;20047;-89
2022/10/03 03:04:13;;;;;;;13.63;3.75;;;10.20;99.90;;;;;;5981852;23;20030;-89
2022/10/03 03:07:00;;;;;;;15.25;3.55;;;10.20;99.90;;;;;;6003355;23;20028;-89
2022/10/03 03:09:31;;;;;;;14.80;3.42;;;10.20;99.90;;;;;;5980138;23;20095;-89
2022/10/03 03:12:22;;;;;;;17.85;4.10;;;10.30;99.90;;;;;;6003530;23;20463;-90
2022/10/03 03:15:25;;;;;;;15.68;3.72;;;10.30;99.90;;;;;;6003498;23;20052;-89
2022/10/03 03:18:31;;;;;;;14.30;3.47;;;10.30;99.90;;;;;;5980470;23;20476;-88
2022/10/03 03:21:33;;;;;;;13.10;3.72;;;10.20;99.90;;;;;;6004134;23;20485;-88
2022/10/03 03:24:25;;;;;;;14.93;3.58;;;10.30;99.90;;;;;;6003355;23;20522;-89
2022/10/03 03:27:18;;;;;;;13.05;3.47;;;10.20;99.90;;;;;;6004007;23;20034;-89
2022/10/03 03:29:50;;;;;;;15.00;3.20;;;10.30;99.90;;;;;;6005303;23;20714;-89
2022/10/03 03:32:18;;;;;;;15.57;4.28;;;10.30;99.90;;;;;;6003968;23;20016;-89
2022/10/03 03:35:12;;;;;;;12.85;3.85;;;10.40;99.90;;;;;;6003557;23;20485;-90
2022/10/03 03:37:58;;;;;;;15.07;3.47;;;10.30;99.90;;;;;;6005317;23;20012;-89
2022/10/03 03:40:33;;;;;;;14.30;3.80;;;10.30;99.90;;;;;;5983693;23;20024;-89
2022/10/03 03:43:43;;;;;;;16.38;3.53;;;10.20;99.90;;;;;;6003535;23;20022;-89
2022/10/03 03:46:09;;;;;;;16.58;3.58;;;10.20;99.90;;;;;;6005521;23;20008;-88
2022/10/03 03:48:50;;;;;;;16.15;4.15;;;10.20;99.90;;;;;;6003390;23;20024;-90
2022/10/03 03:51:32;;;;;;;15.77;3.63;;;10.20;99.90;;;;;;5980628;23;20024;-90
2022/10/03 03:54:22;;;;;;;15.13;3.85;;;10.20;99.90;;;;;;6004140;23;20016;-90
2022/10/03 03:57:15;;;;;;;10.70;3.60;;;10.20;99.90;;;;;;5980653;23;20357;-90
2022/10/03 03:59:58;;;;;;;13.93;3.97;;;10.20;99.90;;;;;;6006002;23;20350;-89
2022/10/03 04:02:37;;;;;;;14.43;3.08;;;10.10;99.90;;;;;;6003719;23;20129;-89
2022/10/03 04:05:39;;;;;;;11.13;3.47;;;10.10;99.90;;;;;;6002415;23;20019;-90
2022/10/03 04:08:09;;;;;;;11.57;3.30;;;10.10;99.90;;;;;;6002836;23;20049;-90
2022/10/03 04:10:42;;;;;;;9.18;1.65;;;10.10;99.90;;;;;;6003529;23;20379;-90
2022/10/03 04:13:47;;;;;;;14.65;3.75;;;10.00;99.90;;;;;;6003718;23;20020;-89
2022/10/03 04:19:59;;;;;;;15.30;4.22;;;10.00;99.90;;;;;;6004143;23;20020;-89
2022/10/03 04:22:46;;;;;;;16.55;3.97;;;10.00;99.90;;;;;;6003897;23;20012;-90
2022/10/03 04:25:34;;;;;;;10.27;2.90;;;10.00;99.90;;;;;;6003422;23;20040;-89
2022/10/03 04:28:33;;;;;;;12.02;2.60;;;10.00;99.90;;;;;;6004521;23;20020;-89
2022/10/03 04:31:13;;;;;;;15.25;4.43;;;9.90;99.90;;;;;;6005475;23;20086;-89
2022/10/03 04:33:45;;;;;;;16.13;3.92;;;10.00;99.90;;;;;;6006363;23;20012;-90
2022/10/03 04:36:23;;;;;;;13.07;3.28;;;9.90;99.90;;;;;;6004333;23;20027;-89
2022/10/03 04:39:19;;;;;;;14.13;3.17;;;10.00;99.90;;;;;;6005025;23;20016;-89
2022/10/03 04:42:00;;;;;;;15.45;3.90;;;10.00;99.90;;;;;;6003614;23;20095;-91
2022/10/03 04:44:50;;;;;;;13.13;3.23;;;9.90;99.90;;;;;;6005246;23;20015;-90
2022/10/03 04:47:25;;;;;;;14.98;3.50;;;9.90;99.90;;;;;;6005209;23;20023;-90
2022/10/03 04:50:18;;;;;;;13.90;4.22;;;9.90;99.90;;;;;;5980194;23;20098;-90
2022/10/03 04:53:10;;;;;;;12.98;3.78;;;9.90;99.90;;;;;;6015909;23;20016;-90
2022/10/03 04:55:42;;;;;;;11.07;3.70;;;9.90;99.90;;;;;;6005298;23;20095;-89
2022/10/03 04:58:37;;;;;;;13.70;3.67;;;10.00;99.90;;;;;;6006599;23;20342;-89
2022/10/03 05:01:09;;;;;;;14.07;3.40;;;10.00;99.90;;;;;;6002591;23;20020;-89
2022/10/03 05:04:01;;;;;;;13.82;2.75;;;9.90;99.90;;;;;;6004454;23;20095;-91
2022/10/03 05:06:50;;;;;;;12.40;3.75;;;9.80;99.90;;;;;;6005185;23;20016;-88
2022/10/03 05:09:48;;;;;;;8.88;1.92;;;9.80;99.90;;;;;;6002163;23;20089;-90
2022/10/03 05:12:45;;;;;;;16.17;3.70;;;9.70;99.90;;;;;;5990804;23;20023;-91
2022/10/03 05:15:21;;;;;;;11.93;4.00;;;9.70;99.90;;;;;;6015611;23;20096;-91
2022/10/03 05:18:10;;;;;;;14.38;3.95;;;9.80;99.90;;;;;;6009681;23;20087;-92
2022/10/03 05:20:59;;;;;;;12.80;4.13;;;9.80;99.90;;;;;;6005896;23;20334;-91
2022/10/03 05:23:52;;;;;;;14.70;4.20;;;9.70;99.90;;;;;;6005473;23;20011;-91
2022/10/03 05:26:44;;;;;;;15.68;4.28;;;9.80;99.90;;;;;;6005547;23;20051;-92
2022/10/03 05:29:14;;;;;;;10.43;3.50;;;9.80;99.90;;;;;;6006824;23;20102;-91
2022/10/03 05:32:24;;;;;;;8.68;2.03;;;9.80;99.90;;;;;;5981044;23;20421;-90
2022/10/03 05:35:11;;;;;;;7.22;1.98;;;9.70;99.90;;;;;;5983994;23;20515;-90
2022/10/03 05:38:17;;;;;;;10.73;3.10;;;9.50;99.90;;;;;;6008853;23;20052;-90
2022/10/03 05:41:01;;;;;;;13.40;2.97;;;9.60;99.90;;;;;;6003333;23;20087;-87
2022/10/03 05:43:42;;;;;;;11.65;3.22;;;9.60;99.90;;;;;;6004129;23;20022;-88
2022/10/03 05:46:19;;;;;;;9.85;3.10;;;9.60;99.90;;;;;;6002776;23;20349;-89
2022/10/03 05:49:09;;;;;;;10.13;2.60;;;9.60;99.90;;;;;;6005409;23;20096;-90
2022/10/03 05:51:48;;;;;;;9.52;2.50;;;9.50;99.90;;;;;;6008182;23;20559;-88
2022/10/03 05:54:30;;;;;;;9.30;2.90;;;9.40;99.90;;;;;;6009055;23;20020;-88
2022/10/03 05:57:17;;;;;;;10.60;2.85;;;9.40;99.90;;;;;;6005442;23;20016;-90
2022/10/03 06:00:05;;;;;;;10.68;2.90;;;9.40;99.90;;;;;;6003775;23;20346;-90
2022/10/03 06:02:56;;;;;;;9.50;2.60;;;9.40;99.90;;;;;;6004628;23;20027;-90
2022/10/03 06:05:50;;;;;;;11.15;2.15;;;9.40;99.90;;;;;;6002493;23;20086;-89
2022/10/03 06:08:49;;;;;;;11.55;3.28;;;9.30;99.90;;;;;;6002726;23;20027;-90
2022/10/03 06:11:43;;;;;;;7.88;2.25;;;9.30;99.90;;;;;;6003105;23;20016;-89
2022/10/03 06:14:28;;;;;;;9.65;2.45;;;9.30;99.90;;;;;;6002627;23;20442;-89
2022/10/03 06:17:15;;;;;;;11.95;4.45;;;9.30;99.90;;;;;;5980619;23;20064;-89
2022/10/03 06:19:56;;;;;;;13.43;3.28;;;9.40;99.90;;;;;;6005186;23;20020;-89
2022/10/03 06:22:41;;;;;;;11.43;3.80;;;9.50;99.90;;;;;;5980810;23;20070;-88
2022/10/03 06:25:25;;;;;;;13.75;3.30;;;9.50;99.90;;;;;;6005296;23;20063;-88
2022/10/03 06:28:17;;;;;;;9.32;2.67;;;9.50;99.90;;;;;;6003279;23;20027;-88
2022/10/03 06:30:51;;;;;;;10.93;3.30;;;9.50;99.90;;;;;;6005866;23;20047;-87
2022/10/03 06:33:46;;;;;;;13.02;3.13;;;9.50;99.90;;;;;;6001976;23;20023;-88
2022/10/03 06:36:31;;;;;;;9.52;2.55;;;9.60;99.90;;;;;;6002244;23;20020;-88
2022/10/03 06:39:18;;;;;;;11.05;2.20;;;9.50;99.90;;;;;;6003841;23;20387;-88
2022/10/03 06:42:21;;;;;;;11.25;3.22;;;9.50;99.90;;;;;;6005897;23;20457;-90
2022/10/03 06:45:09;;;;;;;10.15;3.50;;;9.60;99.90;;;;;;6004726;23;20072;-90
2022/10/03 06:47:56;;;;;;;10.93;3.15;;;9.70;99.90;;;;;;6003706;23;20031;-88
2022/10/03 06:50:52;;;;;;;11.85;3.70;;;9.80;99.90;;;;;;6003739;23;20027;-87
2022/10/03 06:53:28;;;;;;;8.75;2.13;;;9.80;99.90;;;;;;6003068;23;20072;-87
2022/10/03 06:56:09;;;;;;;11.80;3.60;;;9.80;99.90;;;;;;6004263;23;20022;-87
2022/10/03 06:58:38;;;;;;;;;;;9.90;99.90;;;;;;6004506;23;20030;-87
2022/10/03 07:01:25;;;;;;;10.00;2.85;;;9.90;99.90;;;;;;6026168;23;20358;-87
2022/10/03 07:04:12;;;;;;;9.77;3.50;;;10.00;99.90;;;;;;6003731;23;20391;-87
2022/10/03 07:06:47;;;;;;;10.65;3.00;;;10.10;99.90;;;;;;6004117;23;19995;-87
2022/10/03 07:09:28;;;;;;;11.48;3.22;;;10.20;99.90;;;;;;6003850;23;20067;-87
2022/10/03 07:12:32;;;;;;;10.60;2.73;;;10.20;99.90;;;;;;6005333;23;20016;-87
2022/10/03 07:15:10;;;;;;;13.52;2.80;;;10.30;99.90;;;;;;5979694;23;20038;-87
2022/10/03 07:17:54;;;;;;;10.50;2.80;;;10.40;99.90;;;;;;6003184;23;20016;-87
2022/10/03 07:20:34;;;;;;;10.25;3.03;;;10.40;99.90;;;;;;6004406;23;20019;-87
2022/10/03 07:23:12;;;;;;;11.13;2.80;;;10.60;99.90;;;;;;6005164;23;20020;-87
2022/10/03 07:26:13;;;;;;;12.07;2.97;;;10.60;99.90;;;;;;6004859;23;20019;-86
2022/10/03 07:29:06;;;;;;;12.55;3.90;;;10.70;99.90;;;;;;6004082;23;20044;-86
2022/10/03 07:31:38;;;;;;;10.48;2.83;;;10.80;99.90;;;;;;6002561;23;20023;-86
2022/10/03 07:34:15;;;;;;;13.85;2.95;;;10.80;99.90;;;;;;6003650;23;20512;-86
2022/10/03 07:40:01;;;;;;;10.90;2.80;;;11.00;99.90;;;;;;6026904;23;20188;-88
2022/10/03 07:43:04;;;;;;;13.75;2.90;;;11.10;99.90;;;;;;6006333;23;20383;-87
2022/10/03 07:45:45;;;;;;;12.48;2.92;;;11.20;99.90;;;;;;5980378;23;20058;-88
2022/10/03 07:48:45;;;;;;;10.18;2.38;;;11.20;99.90;;;;;;6003533;23;20350;-88
2022/10/03 07:51:12;;;;;;;13.07;3.53;;;11.30;99.90;;;;;;6004783;23;20019;-88
2022/10/03 07:54:08;;;;;;;12.02;2.58;;;11.40;99.90;;;;;;5980589;23;20243;-88
2022/10/03 07:56:55;;;;;;;11.15;2.38;;;11.50;99.90;;;;;;6003219;23;20046;-88
2022/10/03 07:59:39;;;;;;;13.18;2.70;;;11.60;99.90;;;;;;6003946;23;20379;-88
2022/10/03 08:02:42;;;;;;;10.32;2.40;;;11.70;99.90;;;;;;6004424;23;20015;-87
2022/10/03 08:05:26;;;;;;;11.05;2.42;;;11.70;99.90;;;;;;6004562;23;20022;-87
2022/10/03 08:08:30;;;;;;;13.75;2.75;;;11.80;99.90;;;;;;5978225;23;20024;-87
2022/10/03 08:11:21;;;;;;;10.63;2.35;;;12.00;99.90;;;;;;6005196;23;20347;-87
2022/10/03 08:13:48;;;;;;;12.13;2.75;;;12.10;99.90;;;;;;6002147;23;20450;-87
2022/10/03 08:16:45;;;;;;;12.25;2.40;;;12.20;99.90;;;;;;6004916;23;20011;-87
2022/10/03 08:19:51;;;;;;;9.95;2.03;;;12.30;99.90;;;;;;6002445;23;20020;-87
2022/10/03 08:22:30;;;;;;;10.38;1.85;;;12.40;99.90;;;;;;6002682;23;20075;-87
2022/10/03 08:25:15;;;;;;;10.20;2.10;;;12.50;99.90;;;;;;6004485;23;20024;-87
2022/10/03 08:28:18;;;;;;;10.38;2.25;;;12.60;99.90;;;;;;6004308;23;20020;-87
2022/10/03 08:31:11;;;;;;;10.40;1.83;;;12.60;99.90;;;;;;6002562;23;20015;-87
2022/10/03 08:33:56;;;;;;;9.90;1.95;;;12.70;99.90;;;;;;6001784;23;20023;-88
2022/10/03 08:36:25;;;;;;;9.55;2.13;;;12.80;99.90;;;;;;6005541;23;20342;-87
2022/10/03 08:38:59;;;;;;;10.68;2.40;;;12.90;99.90;;;;;;6003914;23;20462;-87
2022/10/03 08:41:47;;;;;;;7.75;2.20;;;12.90;99.90;;;;;;6005341;23;20083;-88
2022/10/03 08:44:30;;;;;;;9.18;1.90;;;13.00;99.90;;;;;;6004492;23;20095;-87
2022/10/03 08:47:01;;;;;;;9.02;2.28;;;13.10;99.90;;;;;;6005389;23;20088;-91
2022/10/03 08:49:35;;;;;;;8.90;2.25;;;13.20;99.90;;;;;;6005199;23;20434;-93
2022/10/03 08:52:27;;;;;;;11.25;2.42;;;13.30;99.90;;;;;;6004105;23;20016;-88
2022/10/03 08:55:33;;;;;;;8.60;2.00;;;13.40;99.90;;;;;;6005533;23;20062;-89
2022/10/03 08:58:20;;;;;;;9.48;2.03;;;13.50;99.90;;;;;;6006367;23;20075;-90
2022/10/03 09:01:03;;;;;;;7.50;1.80;;;13.50;99.90;;;;;;6005031;23;20056;-88
2022/10/03 09:03:57;;;;;;;10.32;2.13;;;13.60;99.90;;;;;;6005365;23;20018;-88
2022/10/03 09:07:00;;;;;;;11.38;2.00;;;13.70;99.90;;;;;;6005899;23;20022;-88
2022/10/03 09:09:54;;;;;;;7.53;1.63;;;13.70;99.90;;;;;;6005556;23;20047;-92
2022/10/03 09:12:26;;;;;;;12.00;2.20;;;13.80;99.90;;;;;;6010625;23;20026;-94
2022/10/03 09:15:04;;;;;;;9.98;1.73;;;13.90;99.90;;;;;;5994750;23;20043;-92
2022/10/03 09:17:48;;;;;;;11.13;2.15;;;13.90;99.90;;;;;;6024470;23;20044;-94
2022/10/03 09:20:42;;;;;;;11.40;2.10;;;14.00;99.90;;;;;;6022709;23;20398;-92
2022/10/03 09:23:20;;;;;;;9.18;1.90;;;14.00;99.90;;;;;;6019128;23;20127;-93
2022/10/03 09:26:06;;;;;;;11.45;2.40;;;14.20;99.90;;;;;;6007524;23;20027;-92
2022/10/03 09:29:10;;;;;;;11.32;2.05;;;14.20;99.90;;;;;;6005993;23;20050;-92
2022/10/03 09:31:42;;;;;;;10.90;2.55;;;14.20;99.90;;;;;;6009840;23;20068;-90
2022/10/03 09:34:50;;;;;;;10.50;1.80;;;14.20;99.90;;;;;;5987750;23;20398;-90
2022/10/03 09:37:43;;;;;;;10.70;1.80;;;14.30;99.90;;;;;;5982251;23;20022;-88
2022/10/03 09:40:29;;;;;;;11.30;2.10;;;14.40;99.90;;;;;;6009367;23;20016;-90
2022/10/03 09:43:07;;;;;;;8.73;1.67;;;14.40;99.90;;;;;;5984992;23;20012;-89
2022/10/03 09:46:03;;;;;;;10.90;2.10;;;14.50;99.90;;;;;;6008548;23;20109;-89
2022/10/03 09:48:31;;;;;;;9.85;2.05;;;14.50;99.90;;;;;;6007014;23;20083;-89
2022/10/03 09:51:32;;;;;;;12.75;2.47;;;14.60;99.90;;;;;;6004725;23;20040;-89
2022/10/03 09:54:12;;;;;;;9.43;2.40;;;14.60;99.90;;;;;;6015273;23;20018;-93
2022/10/03 09:56:47;;;;;;;9.85;1.83;;;14.70;99.90;;;;;;5986550;23;20048;-88
2022/10/03 09:59:32;;;;;;;11.98;1.88;;;14.80;99.90;;;;;;6006398;23;20087;-90
2022/10/03 10:02:32;;;;;;;11.60;1.88;;;14.90;99.90;;;;;;6008269;23;20025;-90
2022/10/03 10:05:16;;;;;;;8.40;1.92;;;15.00;99.90;;;;;;6003855;23;20016;-91
2022/10/03 10:07:59;;;;;;;9.02;1.40;;;15.00;99.90;;;;;;5978385;23;20331;-90
2022/10/03 10:10:44;;;;;;;6.72;1.40;;;15.10;99.90;;;;;;6002020;23;20020;-88
2022/10/03 10:13:37;;;;;;;9.48;1.98;;;15.10;99.90;;;;;;6005296;23;20503;-91
2022/10/03 10:16:40;;;;;;;10.10;1.70;;;15.20;99.90;;;;;;6004473;23;20091;-90
2022/10/03 10:19:08;;;;;;;11.02;2.08;;;15.20;99.90;;;;;;6004369;23;20055;-89
2022/10/03 10:21:49;;;;;;;9.52;1.80;;;15.30;99.90;;;;;;6005395;23;20383;-90
2022/10/03 10:25:03;;;;;;;8.02;1.52;;;15.30;99.90;;;;;;6006161;23;20019;-91
2022/10/03 10:28:13;;;;;;;9.23;1.38;;;15.30;99.90;;;;;;5918622;24;20017;-90
2022/10/03 10:31:09;;;;;;;11.40;1.73;;;15.40;99.90;;;;;;5896997;24;20443;-91
2022/10/03 10:34:18;;;;;;;7.60;1.75;;;15.50;99.90;;;;;;5896374;24;20021;-90
2022/10/03 10:37:18;;;;;;;9.95;1.50;;;15.50;99.90;;;;;;5896693;24;20029;-89
2022/10/03 10:40:02;;;;;;;5.90;1.25;;;15.60;99.90;;;;;;5919957;24;20044;-88
2022/10/03 10:42:45;;;;;;;7.97;1.70;;;15.70;99.90;;;;;;5897465;24;20021;-89
2022/10/03 10:45:34;;;;;;;8.40;1.30;;;15.70;99.90;;;;;;5919055;24;20121;-90
2022/10/03 10:48:25;;;;;;;8.27;1.50;;;15.80;99.90;;;;;;5872814;24;20031;-87
2022/10/03 10:51:28;;;;;;;8.63;1.80;;;15.70;99.90;;;;;;5894896;24;20060;-90
2022/10/03 10:54:22;;;;;;;9.40;1.38;;;15.80;99.90;;;;;;5896711;24;20020;-89
2022/10/03 10:57:06;;;;;;;9.43;1.50;;;15.80;99.90;;;;;;5896805;24;20406;-91
2022/10/03 10:59:50;;;;;;;5.53;1.20;;;15.80;99.90;;;;;;5919671;24;20021;-91
2022/10/03 11:03:10;;;;;;;8.73;1.30;;;15.90;99.90;;;;;;5919508;24;20577;-90
2022/10/03 11:06:21;;;;;;;8.43;1.58;;;15.90;99.90;;;;;;5929535;23;20016;-89
2022/10/03 11:09:08;;;;;;;10.05;2.00;;;16.00;99.90;;;;;;6004830;23;20324;-90
2022/10/03 11:12:12;;;;;;;6.30;1.40;;;16.00;99.90;;;;;;6004183;23;20028;-90
2022/10/03 11:15:02;;;;;;;7.30;1.50;;;16.10;99.90;;;;;;6006233;23;20411;-89
2022/10/03 11:17:56;;;;;;;7.32;1.45;;;16.10;99.90;;;;;;6006210;23;20027;-91
2022/10/03 11:21:03;;;;;;;8.05;1.63;;;16.10;99.90;;;;;;6005123;23;20438;-90
2022/10/03 11:24:00;;;;;;;6.25;1.30;;;16.10;99.90;;;;;;6005306;23;20392;-90
2022/10/03 11:27:17;;;;;;;7.40;1.40;;;16.20;99.90;;;;;;6004611;23;20052;-91
2022/10/03 11:30:06;;;;;;;5.90;1.15;;;16.20;99.90;;;;;;5895441;24;20344;-89
2022/10/03 11:33:07;;;;;;;8.07;1.30;;;16.20;99.90;;;;;;5895303;24;20044;-89
2022/10/03 11:35:51;;;;;;;8.27;1.58;;;16.20;99.90;;;;;;5896912;24;20688;-89
2022/10/03 11:38:28;;;;;;;6.57;1.45;;;16.20;99.90;;;;;;5896719;24;20021;-89
2022/10/03 11:41:07;;;;;;;7.55;1.33;;;16.30;99.90;;;;;;5897014;24;20438;-88
2022/10/03 11:44:10;;;;;;;6.70;1.30;;;16.30;99.90;;;;;;5919186;24;20347;-93
2022/10/03 11:46:57;;;;;;;7.30;1.40;;;16.40;99.90;;;;;;5918469;24;20026;-88
2022/10/03 11:49:37;;;;;;;9.07;1.77;;;16.50;99.90;;;;;;5918455;24;20460;-89
2022/10/03 11:52:21;;;;;;;7.88;1.33;;;16.60;99.90;;;;;;5896251;24;20302;-89
2022/10/03 11:54:49;;;;;;;5.90;1.20;;;16.60;99.90;;;;;;5892909;24;20465;-88
2022/10/03 11:57:33;;;;;;;7.45;1.48;;;16.60;99.90;;;;;;5921155;24;20099;-89
2022/10/03 12:00:20;;;;;;;8.30;1.27;;;16.60;99.90;;;;;;5896243;24;20918;-88
2022/10/03 12:02:51;;;;;;;8.88;1.85;;;16.70;99.90;;;;;;5895174;24;20012;-88
2022/10/03 12:05:38;;;;;;;7.75;1.98;;;16.70;99.90;;;;;;5944995;23;20016;-89
2022/10/03 12:11:16;;;;;;;7.05;1.63;;;16.80;99.90;;;;;;6027660;23;20099;-89
2022/10/03 12:14:10;;;;;;;7.72;1.65;;;16.80;99.90;;;;;;6005504;23;20016;-89
2022/10/03 12:16:52;;;;;;;7.07;1.60;;;16.80;99.90;;;;;;6001521;23;20335;-89
2022/10/03 12:19:43;;;;;;;7.88;1.50;;;16.80;99.90;;;;;;5979267;23;20019;-89
2022/10/03 12:22:27;;;;;;;6.63;1.42;;;16.80;99.90;;;;;;5961157;23;20020;-89
2022/10/03 12:25:14;;;;;;;8.73;1.40;;;16.80;99.90;;;;;;5980591;23;20019;-91
2022/10/03 12:28:00;;;;;;;7.88;1.40;;;16.70;99.90;;;;;;6005944;23;20083;-89
2022/10/03 12:30:33;;;;;;;6.80;1.60;;;16.80;99.90;;;;;;6005830;23;20015;-89
2022/10/03 12:33:31;;;;;;;10.05;1.80;;;16.90;99.90;;;;;;6005185;23;20012;-90
2022/10/03 12:36:18;;;;;;;8.55;1.40;;;16.90;99.90;;;;;;6007178;23;20079;-90
2022/10/03 12:39:10;;;;;;;6.80;1.50;;;16.90;99.90;;;;;;6005110;23;20071;-88
2022/10/03 12:42:04;;;;;;;7.80;1.83;;;16.90;99.90;;;;;;6006468;23;20022;-90
2022/10/03 12:44:50;;;;;;;6.68;1.50;;;17.00;99.90;;;;;;6005680;23;20102;-91
2022/10/03 12:47:34;;;;;;;8.35;1.70;;;16.90;99.90;;;;;;6005761;23;20114;-91
2022/10/03 12:50:21;;;;;;;7.70;1.50;;;17.00;99.90;;;;;;6007700;23;20019;-90
2022/10/03 12:53:05;;;;;;;5.50;1.20;;;17.00;99.90;;;;;;6005756;23;20067;-89
2022/10/03 12:55:33;;;;;;;7.75;1.45;;;16.90;99.90;;;;;;6006423;23;20075;-89
2022/10/03 12:58:28;;;;;;;5.55;1.40;;;16.90;99.90;;;;;;6006138;23;20063;-91
2022/10/03 13:01:10;;;;;;;7.18;1.35;;;16.90;99.90;;;;;;6006460;23;20087;-90
2022/10/03 13:03:53;;;;;;;7.18;1.40;;;16.80;99.90;;;;;;6007675;23;20516;-91
2022/10/03 13:06:45;;;;;;;9.85;1.58;;;16.80;99.90;;;;;;6003554;23;20019;-90
2022/10/03 13:09:22;;;;;;;7.30;1.65;;;16.80;99.90;;;;;;6006989;23;20020;-92
2022/10/03 13:12:15;;;;;;;9.50;1.52;;;16.80;99.90;;;;;;6007861;23;20087;-91
2022/10/03 13:15:18;;;;;;;7.78;1.60;;;16.80;99.90;;;;;;6006058;23;20050;-92
2022/10/03 13:18:14;;;;;;;8.45;1.88;;;16.90;99.90;;;;;;6006491;23;20024;-91
2022/10/03 13:20:48;;;;;;;6.68;1.35;;;16.90;99.90;;;;;;6006789;23;20024;-91
2022/10/03 13:23:19;;;;;;;8.35;1.63;;;17.00;99.90;;;;;;6007587;23;20011;-90
2022/10/03 13:25:58;;;;;;;;;;;17.00;99.90;;;;;;6007132;23;20075;-90
2022/10/03 13:28:58;;;;;;;6.65;1.20;;;17.00;99.90;;;;;;6032872;23;19914;-89
2022/10/03 13:31:30;;;;;;;7.95;1.55;;;17.10;99.90;;;;;;6010327;23;20016;-92
2022/10/03 13:34:01;;;;;;;6.95;1.50;;;17.20;99.90;;;;;;6022652;23;20020;-92
2022/10/03 13:36:46;;;;;;;7.00;1.27;;;17.30;99.90;;;;;;6000184;23;20023;-94
2022/10/03 13:39:28;;;;;;;8.07;1.73;;;17.10;99.90;;;;;;6021695;23;20308;-94
2022/10/03 13:42:19;;;;;;;8.00;1.60;;;17.10;99.90;;;;;;6007563;23;20016;-92
2022/10/03 13:44:55;;;;;;;7.30;1.58;;;17.10;99.90;;;;;;6031070;23;20018;-94
2022/10/03 13:47:57;;;;;;;7.45;1.80;;;17.20;99.90;;;;;;6007945;23;20015;-94
2022/10/03 13:50:38;;;;;;;7.05;1.50;;;17.10;99.90;;;;;;5983314;23;20100;-94
2022/10/03 13:53:13;;;;;;;6.07;1.38;;;17.10;99.90;;;;;;6007315;23;20103;-92
2022/10/03 13:56:07;;;;;;;6.78;1.50;;;17.20;99.90;;;;;;6006407;23;20023;-93
2022/10/03 13:58:43;;;;;;;6.40;1.23;;;17.20;99.90;;;;;;6029249;23;20016;-91
2022/10/03 14:01:20;;;;;;;9.38;1.60;;;17.20;99.90;;;;;;6006183;23;20076;-91
2022/10/03 14:04:14;;;;;;;9.38;1.30;;;17.20;99.90;;;;;;6005747;23;20023;-92
2022/10/03 14:06:50;;;;;;;6.82;1.50;;;17.10;99.90;;;;;;6006447;23;20016;-90
2022/10/03 14:09:24;;;;;;;8.25;1.80;;;17.10;99.90;;;;;;6011256;23;20026;-92
2022/10/03 14:12:03;;;;;;;6.35;1.60;;;17.10;99.90;;;;;;6008733;23;20023;-92
2022/10/03 14:15:03;;;;;;;7.43;1.35;;;17.10;99.90;;;;;;6011699;23;20466;-91
2022/10/03 14:18:06;;;;;;;7.50;1.45;;;17.00;99.90;;;;;;6005966;23;20234;-92
2022/10/03 14:21:01;;;;;;;8.55;1.33;;;17.00;99.90;;;;;;6004905;23;20016;-90
2022/10/03 14:24:19;;;;;;;6.53;1.52;;;17.00;99.90;;;;;;6006064;23;20019;-91
2022/10/03 14:26:51;;;;;;;7.80;1.30;;;17.00;99.90;;;;;;5971349;23;20058;-91
2022/10/03 14:29:32;;;;;;;8.45;1.50;;;17.00;99.90;;;;;;6006004;23;20019;-91
2022/10/03 14:32:24;;;;;;;6.78;1.60;;;17.00;99.90;;;;;;6007270;23;20054;-92
2022/10/03 14:35:18;;;;;;;7.32;1.70;;;17.00;99.90;;;;;;6006249;23;20020;-90
2022/10/03 14:38:00;;;;;;;6.78;1.45;;;17.00;99.90;;;;;;6006152;23;20064;-90